createdAt,value
2018-08-12T00:00:30.118Z,75.58
2018-08-12T00:01:30.141Z,75.2
2018-08-12T00:02:30.166Z,75.1
2018-08-12T00:03:30.186Z,75.48
2018-08-12T00:04:30.209Z,75.29
2018-08-12T00:05:30.234Z,75.1
2018-08-12T00:07:30.276Z,74.91
2018-08-12T00:08:30.302Z,74.82
2018-08-12T00:09:30.067Z,75.1
2018-08-12T00:10:30.349Z,74.82
2018-08-12T00:11:30.373Z,75.1
2018-08-12T00:12:30.138Z,75.2
2018-08-12T00:13:45.079Z,75.48
2018-08-12T00:14:30.438Z,75.87
2018-08-12T00:15:30.464Z,75.48
2018-08-12T00:16:30.485Z,74.91
2018-08-12T00:17:30.509Z,75.2
2018-08-12T00:19:30.556Z,75.77
2018-08-12T00:20:30.582Z,75.87
2018-08-12T00:21:30.603Z,75.68
2018-08-12T00:22:30.368Z,75.96
2018-08-12T00:23:30.649Z,76.25
2018-08-12T00:24:30.669Z,75.29
2018-08-12T00:25:30.705Z,76.15
2018-08-12T00:26:30.713Z,76.64
2018-08-12T00:27:30.737Z,76.15
2018-08-12T00:28:30.766Z,76.54
2018-08-12T00:29:45.446Z,76.64
2018-08-12T00:30:30.806Z,76.82
2018-08-12T00:31:30.833Z,76.54
2018-08-12T00:32:30.855Z,76.69
2018-08-12T00:33:30.618Z,76.89
2018-08-12T00:34:30.897Z,76.6
2018-08-12T00:35:30.926Z,76.69
2018-08-12T00:36:30.944Z,76.79
2018-08-12T00:37:30.971Z,77.65
2018-08-12T00:38:30.994Z,77.55
2018-08-12T00:40:31.035Z,77.26
2018-08-12T00:41:31.063Z,77.75
2018-08-12T00:42:31.083Z,78.03
2018-08-12T00:43:30.848Z,78.32
2018-08-12T00:44:31.130Z,78.22
2018-08-12T00:45:45.812Z,77.94
2018-08-12T00:46:31.172Z,77.94
2018-08-12T00:47:31.192Z,77.94
2018-08-12T00:48:31.219Z,78.51
2018-08-12T00:49:31.242Z,78.32
2018-08-12T00:50:31.008Z,78.13
2018-08-12T00:51:31.028Z,78.89
2018-08-12T00:52:31.055Z,78.32
2018-08-12T00:53:31.332Z,78.22
2018-08-12T00:54:31.359Z,78.51
2018-08-12T00:55:31.383Z,78.7
2018-08-12T00:56:31.401Z,78.7
2018-08-12T00:57:31.427Z,78.8
2018-08-12T00:58:31.190Z,79.66
2018-08-12T00:59:31.472Z,79.75
2018-08-12T01:00:46.156Z,80.04
2018-08-12T01:01:31.518Z,80.24
2018-08-12T01:02:31.540Z,80.19
2018-08-12T01:03:31.666Z,80.67
2018-08-12T01:04:31.327Z,80.67
2018-08-12T01:05:31.607Z,80.96
2018-08-12T01:06:31.631Z,81.73
2018-08-12T01:07:31.397Z,81.34
2018-08-12T01:09:31.698Z,81.63
2018-08-12T01:10:31.726Z,81.34
2018-08-12T01:11:31.749Z,81.44
2018-08-12T01:12:31.770Z,81.25
2018-08-12T01:13:31.787Z,81.44
2018-08-12T01:14:31.813Z,81.34
2018-08-12T01:15:31.836Z,81.34
2018-08-12T01:16:31.863Z,81.63
2018-08-12T01:17:31.881Z,81.82
2018-08-12T01:18:31.905Z,81.73
2018-08-12T01:19:31.927Z,81.34
2018-08-12T01:20:31.954Z,81.92
2018-08-12T01:21:31.973Z,81.73
2018-08-12T01:22:31.995Z,82.3
2018-08-12T01:23:32.019Z,82.2
2018-08-12T01:25:32.063Z,82.78
2018-08-12T01:27:32.112Z,82.74
2018-08-12T01:28:32.135Z,82.74
2018-08-12T01:29:32.159Z,83.06
2018-08-12T01:30:32.180Z,82.97
2018-08-12T01:31:31.942Z,82.87
2018-08-12T01:32:46.884Z,82.68
2018-08-12T01:33:31.988Z,82.68
2018-08-12T01:34:32.268Z,82.68
2018-08-12T01:35:32.291Z,82.97
2018-08-12T01:36:32.311Z,82.68
2018-08-12T01:37:32.336Z,82.78
2018-08-12T01:39:32.390Z,82.68
2018-08-12T01:41:32.431Z,82.68
2018-08-12T01:42:32.450Z,83.31
2018-08-12T01:43:32.474Z,83.89
2018-08-12T01:44:32.501Z,84.08
2018-08-12T01:45:32.516Z,84.17
2018-08-12T01:46:32.547Z,83.98
2018-08-12T01:47:32.569Z,84.46
2018-08-12T01:48:47.246Z,84.08
2018-08-12T01:49:32.350Z,83.79
2018-08-12T01:50:32.634Z,83.79
2018-08-12T01:51:32.396Z,83.69
2018-08-12T01:52:32.674Z,84.36
2018-08-12T01:53:32.693Z,84.17
2018-08-12T01:54:32.719Z,84.84
2018-08-12T01:55:32.485Z,85.61
2018-08-12T01:56:32.771Z,85.75
2018-08-12T01:58:32.812Z,86.14
2018-08-12T01:59:32.839Z,86.61
2018-08-12T02:00:32.855Z,86.71
2018-08-12T02:01:32.885Z,87
2018-08-12T02:02:32.641Z,87.57
2018-08-12T02:03:32.923Z,88.05
2018-08-12T02:04:47.610Z,87.86
2018-08-12T02:05:32.966Z,88.53
2018-08-12T02:06:32.989Z,88.53
2018-08-12T02:07:33.015Z,88.05
2018-08-12T02:08:33.032Z,88.81
2018-08-12T02:09:33.057Z,88.62
2018-08-12T02:10:32.822Z,88.62
2018-08-12T02:12:33.122Z,89.53
2018-08-12T02:13:33.180Z,89.15
2018-08-12T02:14:33.169Z,89.06
2018-08-12T02:15:33.192Z,89.87
2018-08-12T02:16:33.218Z,89.82
2018-08-12T02:17:32.980Z,89.73
2018-08-12T02:18:33.260Z,89.92
2018-08-12T02:20:47.965Z,90.68
2018-08-12T02:21:33.326Z,90.59
2018-08-12T02:22:33.345Z,90.68
2018-08-12T02:23:33.373Z,90.78
2018-08-12T02:24:33.391Z,91.35
2018-08-12T02:25:33.421Z,91.25
2018-08-12T02:26:33.437Z,91.54
2018-08-12T02:27:33.204Z,91.25
2018-08-12T02:28:33.483Z,91.93
2018-08-12T02:29:33.505Z,91.25
2018-08-12T02:30:33.525Z,92.02
2018-08-12T02:31:33.292Z,92.11
2018-08-12T02:32:33.580Z,92.21
2018-08-12T02:34:33.618Z,92.02
2018-08-12T02:35:48.300Z,92.11
2018-08-12T02:36:33.405Z,92.3
2018-08-12T02:37:33.682Z,92.5
2018-08-12T02:38:33.709Z,92.5
2018-08-12T02:39:33.730Z,92.5
2018-08-12T02:40:33.756Z,92.21
2018-08-12T02:41:33.773Z,92.97
2018-08-12T02:42:33.798Z,92.69
2018-08-12T02:43:33.817Z,92.88
2018-08-12T02:44:33.842Z,92.79
2018-08-12T02:45:33.862Z,93.07
2018-08-12T02:46:33.883Z,93.65
2018-08-12T02:47:33.906Z,93.16
2018-08-12T02:48:33.937Z,93.6
2018-08-12T02:49:33.951Z,93.98
2018-08-12T02:50:33.978Z,94.02
2018-08-12T02:51:33.994Z,94.65
2018-08-12T02:52:34.019Z,94.27
2018-08-12T02:53:34.037Z,94.74
2018-08-12T02:54:34.061Z,95.12
2018-08-12T02:55:34.098Z,94.93
2018-08-12T02:56:34.115Z,95.22
2018-08-12T02:57:34.129Z,95.12
2018-08-12T02:58:34.151Z,95.22
2018-08-12T02:59:34.172Z,94.84
2018-08-12T03:00:34.195Z,94.74
2018-08-12T03:02:34.249Z,95.03
2018-08-12T03:03:34.261Z,95.03
2018-08-12T03:04:34.285Z,95.22
2018-08-12T03:05:34.055Z,95.22
2018-08-12T03:06:34.325Z,95.22
2018-08-12T03:07:49.009Z,95.12
2018-08-12T03:08:34.372Z,95.12
2018-08-12T03:09:34.394Z,95.22
2018-08-12T03:10:34.157Z,95.79
2018-08-12T03:11:34.437Z,95.7
2018-08-12T03:12:34.474Z,95.32
2018-08-12T03:13:34.481Z,95.7
2018-08-12T03:14:34.508Z,95.41
2018-08-12T03:15:34.268Z,95.79
2018-08-12T03:18:34.591Z,95.51
2018-08-12T03:19:34.611Z,94.93
2018-08-12T03:20:34.637Z,95.41
2018-08-12T03:21:34.655Z,95.22
2018-08-12T03:22:34.935Z,95.22
2018-08-12T03:23:49.361Z,95.12
2018-08-12T03:24:34.465Z,94.74
2018-08-12T03:25:34.750Z,94.65
2018-08-12T03:26:34.780Z,94.65
2018-08-12T03:27:34.785Z,94.84
2018-08-12T03:28:34.810Z,95.03
2018-08-12T03:29:34.836Z,94.6
2018-08-12T03:30:34.859Z,94.07
2018-08-12T03:31:34.877Z,94.07
2018-08-12T03:32:34.898Z,94.17
2018-08-12T03:33:34.918Z,94.02
2018-08-12T03:34:34.938Z,94.07
2018-08-12T03:35:34.963Z,93.74
2018-08-12T03:36:34.988Z,92.79
2018-08-12T03:37:35.007Z,93.84
2018-08-12T03:38:35.028Z,93.36
2018-08-12T03:39:49.711Z,93.02
2018-08-12T03:40:35.074Z,93.21
2018-08-12T03:41:35.095Z,93.26
2018-08-12T03:42:35.115Z,92.79
2018-08-12T03:43:35.137Z,92.5
2018-08-12T03:44:35.161Z,92.4
2018-08-12T03:45:35.183Z,92.4
2018-08-12T03:46:35.203Z,92.02
2018-08-12T03:48:35.250Z,91.74
2018-08-12T03:50:35.293Z,90.88
2018-08-12T03:51:35.317Z,91.06
2018-08-12T03:52:35.336Z,91.45
2018-08-12T03:53:35.358Z,91.45
2018-08-12T03:54:35.388Z,91.54
2018-08-12T03:55:50.063Z,91.35
2018-08-12T03:56:35.426Z,90.68
2018-08-12T03:57:35.445Z,91.74
2018-08-12T03:58:35.213Z,91.54
2018-08-12T03:59:35.492Z,91.35
2018-08-12T04:00:35.510Z,91.06
2018-08-12T04:01:35.274Z,90.68
2018-08-12T04:02:35.577Z,90.78
2018-08-12T04:03:35.576Z,90.88
2018-08-12T04:04:35.597Z,90.78
2018-08-12T04:05:35.363Z,90.11
2018-08-12T04:06:35.643Z,90.01
2018-08-12T04:07:35.666Z,90.3
2018-08-12T04:08:35.692Z,90.11
2018-08-12T04:09:35.720Z,90.11
2018-08-12T04:10:50.393Z,90.11
2018-08-12T04:11:35.752Z,90.11
2018-08-12T04:12:35.776Z,90.01
2018-08-12T04:13:35.796Z,89.73
2018-08-12T04:14:35.819Z,89.82
2018-08-12T04:15:35.841Z,89.73
2018-08-12T04:16:35.866Z,89.82
2018-08-12T04:17:35.627Z,89.92
2018-08-12T04:18:35.909Z,89.63
2018-08-12T04:19:35.929Z,89.06
2018-08-12T04:20:35.971Z,88.87
2018-08-12T04:21:35.985Z,89.15
2018-08-12T04:22:35.995Z,90.01
2018-08-12T04:23:36.021Z,89.06
2018-08-12T04:24:36.039Z,89.34
2018-08-12T04:25:36.062Z,89.01
2018-08-12T04:26:36.084Z,88.72
2018-08-12T04:27:36.105Z,88.53
2018-08-12T04:28:36.130Z,88.34
2018-08-12T04:29:35.893Z,88.29
2018-08-12T04:30:36.174Z,88.01
2018-08-12T04:31:36.195Z,88.01
2018-08-12T04:32:36.217Z,88.24
2018-08-12T04:33:36.237Z,88.24
2018-08-12T04:34:36.259Z,88.62
2018-08-12T04:35:36.283Z,87.86
2018-08-12T04:36:36.046Z,87.95
2018-08-12T04:37:36.333Z,87.86
2018-08-12T04:39:36.373Z,87.66
2018-08-12T04:40:36.396Z,87.95
2018-08-12T04:41:36.417Z,88.05
2018-08-12T04:42:51.100Z,87.09
2018-08-12T04:43:36.464Z,87.29
2018-08-12T04:44:36.483Z,87
2018-08-12T04:45:36.247Z,87.09
2018-08-12T04:46:36.273Z,87.38
2018-08-12T04:47:36.548Z,86.61
2018-08-12T04:48:36.575Z,86.33
2018-08-12T04:49:36.592Z,87.09
2018-08-12T04:52:36.660Z,86.28
2018-08-12T04:53:36.683Z,85.99
2018-08-12T04:54:36.728Z,85.89
2018-08-12T04:55:36.730Z,85.13
2018-08-12T04:56:36.755Z,84.59
2018-08-12T04:57:36.774Z,83.16
2018-08-12T04:58:51.461Z,81.57
2018-08-12T04:59:36.818Z,79.07
2018-08-12T05:00:36.840Z,75.4
2018-08-12T05:01:36.864Z,72.47
2018-08-12T05:02:36.894Z,70.9
2018-08-12T05:03:36.916Z,69.12
2018-08-12T05:04:36.937Z,66.68
2018-08-12T05:05:36.704Z,64.31
2018-08-12T05:06:36.985Z,62.8
2018-08-12T05:07:37.059Z,61.1
2018-08-12T05:08:37.037Z,59.78
2018-08-12T05:09:37.059Z,59.58
2018-08-12T05:10:36.829Z,58.55
2018-08-12T05:11:37.111Z,56.26
2018-08-12T05:12:37.141Z,55.33
2018-08-12T05:13:37.163Z,55.16
2018-08-12T05:14:51.858Z,53.91
2018-08-12T05:15:37.223Z,53.09
2018-08-12T05:16:37.245Z,52.14
2018-08-12T05:17:37.273Z,51.18
2018-08-12T05:18:37.296Z,51.08
2018-08-12T05:19:37.325Z,50.33
2018-08-12T05:20:37.356Z,50.16
2018-08-12T05:21:37.385Z,49.58
2018-08-12T05:22:37.413Z,49.46
2018-08-12T05:23:37.184Z,48.9
2018-08-12T05:24:37.468Z,48.06
2018-08-12T05:25:37.497Z,46.55
2018-08-12T05:26:37.531Z,46.09
2018-08-12T05:27:37.298Z,45.21
2018-08-12T05:28:37.588Z,44.37
2018-08-12T05:29:37.359Z,44.95
2018-08-12T05:30:52.310Z,45.51
2018-08-12T05:31:37.674Z,44.37
2018-08-12T05:32:37.453Z,43.61
2018-08-12T05:33:37.480Z,42.76
2018-08-12T05:34:37.510Z,43.44
2018-08-12T05:35:37.802Z,43.68
2018-08-12T05:36:37.575Z,42.93
2018-08-12T05:37:37.863Z,42.25
2018-08-12T05:38:37.943Z,41.9
2018-08-12T05:39:37.670Z,42.31
2018-08-12T05:40:37.957Z,41.93
2018-08-12T05:41:37.731Z,41.63
2018-08-12T05:42:38.019Z,40.95
2018-08-12T05:43:38.052Z,40.09
2018-08-12T05:44:37.829Z,40.68
2018-08-12T05:45:52.782Z,40
2018-08-12T05:46:38.154Z,40.68
2018-08-12T05:47:38.180Z,40.75
2018-08-12T05:48:38.214Z,40.29
2018-08-12T05:49:38.248Z,40.09
2018-08-12T05:51:38.445Z,39.9
2018-08-12T05:52:38.344Z,39.34
2018-08-12T05:53:38.379Z,39.45
2018-08-12T05:54:38.411Z,39.04
2018-08-12T05:55:38.500Z,38.96
2018-08-12T05:56:38.480Z,38.28
2018-08-12T05:57:38.519Z,38.77
2018-08-12T05:58:38.546Z,38.3
2018-08-12T05:59:38.583Z,38.61
2018-08-12T06:00:38.612Z,37.83
2018-08-12T06:01:38.647Z,37.55
2018-08-12T06:02:38.738Z,37.55
2018-08-12T06:03:38.717Z,37.54
2018-08-12T06:04:38.754Z,37.54
2018-08-12T06:05:38.783Z,37.35
2018-08-12T06:06:38.816Z,37.15
2018-08-12T06:08:38.891Z,36.58
2018-08-12T06:09:38.920Z,36.49
2018-08-12T06:10:38.950Z,37.37
2018-08-12T06:11:38.988Z,37.25
2018-08-12T06:12:39.023Z,36.39
2018-08-12T06:13:39.056Z,36.29
2018-08-12T06:14:39.093Z,36.21
2018-08-12T06:15:39.285Z,35.04
2018-08-12T06:16:38.903Z,35.16
2018-08-12T06:17:53.860Z,35.36
2018-08-12T06:18:39.233Z,35.55
2018-08-12T06:19:39.271Z,35.35
2018-08-12T06:20:39.043Z,35.63
2018-08-12T06:21:39.336Z,35.04
2018-08-12T06:22:39.374Z,36.21
2018-08-12T06:23:39.410Z,36.19
2018-08-12T06:25:39.611Z,35.27
2018-08-12T06:26:39.253Z,34.5
2018-08-12T06:27:39.300Z,34.33
2018-08-12T06:28:39.584Z,34.33
2018-08-12T06:30:39.655Z,33.25
2018-08-12T06:31:39.817Z,32.76
2018-08-12T06:32:39.765Z,32.01
2018-08-12T06:33:54.429Z,33.46
2018-08-12T06:34:39.803Z,34.11
2018-08-12T06:35:39.578Z,33.92
2018-08-12T06:36:39.873Z,33.53
2018-08-12T06:37:39.903Z,34.03
2018-08-12T06:38:39.685Z,34.5
2018-08-12T06:39:39.980Z,34.31
2018-08-12T06:40:39.756Z,34.11
2018-08-12T06:41:39.794Z,33.46
2018-08-12T06:42:40.087Z,33.65
2018-08-12T06:43:39.866Z,33.36
2018-08-12T06:44:40.163Z,33.05
2018-08-12T06:45:40.227Z,32.03
2018-08-12T06:46:40.231Z,31.91
2018-08-12T06:47:40.011Z,32.12
2018-08-12T06:48:40.048Z,30.88
2018-08-12T06:49:55.006Z,30.8
2018-08-12T06:50:40.377Z,30.88
2018-08-12T06:51:40.464Z,30.5
2018-08-12T06:52:40.453Z,30.58
2018-08-12T06:53:40.486Z,30.01
2018-08-12T06:54:40.524Z,30.01
2018-08-12T06:55:40.563Z,30.39
2018-08-12T06:56:40.599Z,30.68
2018-08-12T06:58:40.679Z,31.62
2018-08-12T06:59:40.710Z,31.71
2018-08-12T07:00:40.751Z,31.81
2018-08-12T07:01:40.785Z,31.91
2018-08-12T07:02:40.825Z,31.63
2018-08-12T07:03:40.900Z,31.54
2018-08-12T07:04:40.893Z,31.63
2018-08-12T07:05:55.593Z,31.63
2018-08-12T07:06:40.965Z,31.91
2018-08-12T07:07:41.012Z,32.78
2018-08-12T07:08:41.038Z,32.84
2018-08-12T07:09:41.077Z,33.04
2018-08-12T07:10:41.112Z,33.34
2018-08-12T07:12:41.186Z,32.19
2018-08-12T07:15:41.295Z,31.9
2018-08-12T07:16:41.332Z,31.71
2018-08-12T07:17:41.365Z,31.04
2018-08-12T07:18:41.146Z,31.81
2018-08-12T07:19:41.441Z,31.6
2018-08-12T07:20:56.143Z,31.62
2018-08-12T07:21:41.515Z,31.8
2018-08-12T07:22:41.549Z,31.6
2018-08-12T07:23:41.586Z,31.63
2018-08-12T07:24:41.652Z,30.85
2018-08-12T07:25:41.663Z,31.06
2018-08-12T07:26:41.700Z,30.37
2018-08-12T07:27:41.775Z,30.39
2018-08-12T07:29:41.550Z,30.39
2018-08-12T07:30:41.846Z,30.67
2018-08-12T07:32:41.952Z,30.55
2018-08-12T07:33:41.954Z,30.85
2018-08-12T07:34:42.042Z,31.14
2018-08-12T07:35:42.031Z,30.85
2018-08-12T07:36:42.064Z,30.55
2018-08-12T07:37:41.843Z,30.67
2018-08-12T07:38:41.949Z,31.83
2018-08-12T07:39:41.918Z,31.98
2018-08-12T07:40:42.212Z,31.49
2018-08-12T07:41:42.247Z,31.9
2018-08-12T07:42:42.286Z,31.9
2018-08-12T07:43:42.327Z,31.49
2018-08-12T07:44:42.462Z,31.03
2018-08-12T07:45:42.397Z,30.75
2018-08-12T07:47:42.471Z,31.99
2018-08-12T07:48:42.291Z,31.29
2018-08-12T07:49:42.544Z,30.91
2018-08-12T07:50:42.582Z,30.85
2018-08-12T07:51:42.620Z,30.65
2018-08-12T07:52:57.319Z,31.24
2018-08-12T07:53:42.690Z,30.67
2018-08-12T07:54:42.471Z,30.85
2018-08-12T07:55:42.664Z,30.65
2018-08-12T07:56:42.806Z,31.23
2018-08-12T07:57:42.837Z,31.23
2018-08-12T07:58:42.874Z,31.34
2018-08-12T07:59:42.910Z,30.94
2018-08-12T08:00:42.949Z,30.16
2018-08-12T08:01:42.985Z,29.98
2018-08-12T08:03:43.065Z,30.26
2018-08-12T08:04:43.099Z,30.85
2018-08-12T08:05:43.135Z,29.87
2018-08-12T08:06:42.914Z,30.65
2018-08-12T08:07:43.206Z,30.64
2018-08-12T08:08:57.908Z,30.52
2018-08-12T08:09:43.024Z,30.54
2018-08-12T08:10:43.317Z,30.46
2018-08-12T08:11:43.353Z,30.46
2018-08-12T08:12:43.390Z,30.72
2018-08-12T08:13:43.425Z,30.64
2018-08-12T08:14:43.463Z,30.35
2018-08-12T08:15:43.241Z,30.25
2018-08-12T08:16:43.281Z,30.08
2018-08-12T08:17:43.571Z,30.07
2018-08-12T08:18:43.613Z,29.49
2018-08-12T08:19:43.757Z,29.11
2018-08-12T08:20:43.425Z,29.22
2018-08-12T08:21:43.820Z,29.5
2018-08-12T08:22:43.757Z,28.92
2018-08-12T08:23:43.792Z,28.83
2018-08-12T08:24:58.493Z,28.93
2018-08-12T08:25:44.094Z,29.39
2018-08-12T08:26:43.902Z,29.68
2018-08-12T08:27:43.941Z,29.84
2018-08-12T08:28:43.980Z,30.44
2018-08-12T08:29:44.010Z,29.87
2018-08-12T08:30:44.048Z,29.97
2018-08-12T08:31:44.618Z,29.58
2018-08-12T08:32:44.120Z,29.02
2018-08-12T08:35:44.228Z,29.18
2018-08-12T08:36:44.270Z,29.27
2018-08-12T08:37:44.308Z,29.38
2018-08-12T08:38:44.339Z,29.48
2018-08-12T08:39:44.372Z,29.28
2018-08-12T08:40:59.073Z,29
2018-08-12T08:41:44.442Z,29.18
2018-08-12T08:42:44.486Z,28.43
2018-08-12T08:43:44.516Z,28.89
2018-08-12T08:44:44.554Z,28.91
2018-08-12T08:45:44.587Z,29.3
2018-08-12T08:46:44.623Z,28.63
2018-08-12T08:47:44.658Z,28.33
2018-08-12T08:48:44.699Z,28.63
2018-08-12T08:49:44.735Z,28.53
2018-08-12T08:50:44.617Z,28.63
2018-08-12T08:51:44.836Z,28.51
2018-08-12T08:52:44.835Z,28.71
2018-08-12T08:53:44.616Z,28.69
2018-08-12T08:54:44.910Z,28.61
2018-08-12T08:55:59.655Z,28.51
2018-08-12T08:56:44.724Z,28.53
2018-08-12T08:57:45.019Z,28.53
2018-08-12T08:58:45.052Z,27.94
2018-08-12T08:59:45.089Z,28.79
2018-08-12T09:00:45.123Z,28.79
2018-08-12T09:01:45.159Z,28.51
2018-08-12T09:02:45.199Z,28.69
2018-08-12T09:03:45.230Z,28.4
2018-08-12T09:04:45.266Z,27.81
2018-08-12T09:06:45.338Z,27.15
2018-08-12T09:07:45.375Z,26.96
2018-08-12T09:08:46.374Z,27.33
2018-08-12T09:09:45.444Z,26.96
2018-08-12T09:10:45.480Z,27.74
2018-08-12T09:11:45.511Z,27.64
2018-08-12T09:12:45.549Z,27.74
2018-08-12T09:13:45.582Z,26.86
2018-08-12T09:14:45.624Z,26.58
2018-08-12T09:15:45.652Z,27.83
2018-08-12T09:16:45.685Z,27.81
2018-08-12T09:17:45.719Z,27.91
2018-08-12T09:18:45.763Z,27.9
2018-08-12T09:19:45.797Z,28.45
2018-08-12T09:20:45.832Z,28.38
2018-08-12T09:21:45.864Z,27.52
2018-08-12T09:22:45.899Z,27.83
2018-08-12T09:24:45.968Z,26.38
2018-08-12T09:25:46.003Z,26
2018-08-12T09:26:46.037Z,26.48
2018-08-12T09:28:00.738Z,26.28
2018-08-12T09:28:45.850Z,25.88
2018-08-12T09:29:46.141Z,25.59
2018-08-12T09:30:46.177Z,26.76
2018-08-12T09:31:46.212Z,26.93
2018-08-12T09:32:45.994Z,26.55
2018-08-12T09:33:46.280Z,26.64
2018-08-12T09:34:46.319Z,27.12
2018-08-12T09:35:46.093Z,27.52
2018-08-12T09:36:46.390Z,27.21
2018-08-12T09:37:46.425Z,26.93
2018-08-12T09:39:46.489Z,27.11
2018-08-12T09:40:46.547Z,27.01
2018-08-12T09:41:46.557Z,26.73
2018-08-12T09:42:46.590Z,26.83
2018-08-12T09:44:01.291Z,26.05
2018-08-12T09:44:46.404Z,25.85
2018-08-12T09:45:46.699Z,26.05
2018-08-12T09:46:46.728Z,25.48
2018-08-12T09:47:46.505Z,25.57
2018-08-12T09:48:46.539Z,25.85
2018-08-12T09:49:46.830Z,27.84
2018-08-12T09:50:46.865Z,27.73
2018-08-12T09:51:47.330Z,28.5
2018-08-12T09:52:46.934Z,28.11
2018-08-12T09:53:46.968Z,28.42
2018-08-12T09:54:47.003Z,29.18
2018-08-12T09:55:46.778Z,28.52
2018-08-12T09:56:46.810Z,27.36
2018-08-12T09:57:47.099Z,26.7
2018-08-12T09:58:47.135Z,27.45
2018-08-12T10:00:01.832Z,26.1
2018-08-12T10:00:46.942Z,25.81
2018-08-12T10:01:47.235Z,25.81
2018-08-12T10:02:47.267Z,25.42
2018-08-12T10:05:47.373Z,25.05
2018-08-12T10:06:47.404Z,25.15
2018-08-12T10:07:47.177Z,24.58
2018-08-12T10:08:47.469Z,23.99
2018-08-12T10:09:47.502Z,24.01
2018-08-12T10:10:47.537Z,24.77
2018-08-12T10:11:47.568Z,24.76
2018-08-12T10:12:47.348Z,24.86
2018-08-12T10:13:47.634Z,25.17
2018-08-12T10:14:47.667Z,25.94
2018-08-12T10:16:02.365Z,25.35
2018-08-12T10:16:47.733Z,25.56
2018-08-12T10:17:47.779Z,25.46
2018-08-12T10:18:47.797Z,25.63
2018-08-12T10:19:47.842Z,25.63
2018-08-12T10:20:47.870Z,26.1
2018-08-12T10:21:47.900Z,26.03
2018-08-12T10:22:47.932Z,26.31
2018-08-12T10:23:48.007Z,26.03
2018-08-12T10:24:47.740Z,25.24
2018-08-12T10:25:48.029Z,26.01
2018-08-12T10:26:48.062Z,25.82
2018-08-12T10:27:48.097Z,26.03
2018-08-12T10:28:48.127Z,26.4
2018-08-12T10:29:48.161Z,27.38
2018-08-12T10:31:02.859Z,27.56
2018-08-12T10:31:48.228Z,27.36
2018-08-12T10:32:48.267Z,28.52
2018-08-12T10:33:48.296Z,28.3
2018-08-12T10:34:48.325Z,29.36
2018-08-12T10:35:48.365Z,29.54
2018-08-12T10:36:48.391Z,28.86
2018-08-12T10:37:48.424Z,29.17
2018-08-12T10:38:48.198Z,28.49
2018-08-12T10:39:48.493Z,28.77
2018-08-12T10:40:48.523Z,28.86
2018-08-12T10:41:48.296Z,30.08
2018-08-12T10:42:48.585Z,29.81
2018-08-12T10:43:48.617Z,29.04
2018-08-12T10:44:48.392Z,29.15
2018-08-12T10:45:48.682Z,29.82
2018-08-12T10:46:48.716Z,30.03
2018-08-12T10:47:48.749Z,29.83
2018-08-12T10:48:48.780Z,29.74
2018-08-12T10:49:48.817Z,29.64
2018-08-12T10:50:48.597Z,29.44
2018-08-12T10:51:48.615Z,29.54
2018-08-12T10:52:48.906Z,29.93
2018-08-12T10:53:48.936Z,29.46
2018-08-12T10:54:48.967Z,29.54
2018-08-12T10:57:49.066Z,29.93
2018-08-12T10:58:48.836Z,29.44
2018-08-12T10:59:49.127Z,28.96
2018-08-12T11:00:49.158Z,29.72
2018-08-12T11:01:49.188Z,29.63
2018-08-12T11:03:03.883Z,29.15
2018-08-12T11:03:49.255Z,29.06
2018-08-12T11:04:49.282Z,28.86
2018-08-12T11:05:49.313Z,28.68
2018-08-12T11:06:49.345Z,28.86
2018-08-12T11:07:49.116Z,29.14
2018-08-12T11:08:49.406Z,28.67
2018-08-12T11:10:49.474Z,28.94
2018-08-12T11:11:49.240Z,29.06
2018-08-12T11:12:49.720Z,28.77
2018-08-12T11:13:49.564Z,28.88
2018-08-12T11:14:49.593Z,28.58
2018-08-12T11:15:49.621Z,29.07
2018-08-12T11:16:49.651Z,28.58
2018-08-12T11:17:49.686Z,28.58
2018-08-12T11:19:04.377Z,29.07
2018-08-12T11:19:49.744Z,28.97
2018-08-12T11:20:49.776Z,28.88
2018-08-12T11:21:49.547Z,29.25
2018-08-12T11:22:49.835Z,28.58
2018-08-12T11:23:49.607Z,29.17
2018-08-12T11:24:49.906Z,28.78
2018-08-12T11:25:49.930Z,29.06
2018-08-12T11:26:49.958Z,28.09
2018-08-12T11:27:49.985Z,28.68
2018-08-12T11:28:50.022Z,28.49
2018-08-12T11:29:50.050Z,28.57
2018-08-12T11:30:50.081Z,28.86
2018-08-12T11:31:50.112Z,29.81
2018-08-12T11:32:50.137Z,29.61
2018-08-12T11:33:50.175Z,29.63
2018-08-12T11:35:04.863Z,29.04
2018-08-12T11:35:50.234Z,29.63
2018-08-12T11:36:50.261Z,28.75
2018-08-12T11:37:50.034Z,29.43
2018-08-12T11:38:50.062Z,28.85
2018-08-12T11:39:50.348Z,29.04
2018-08-12T11:40:50.384Z,28.96
2018-08-12T11:41:50.417Z,28.96
2018-08-12T11:42:50.443Z,29.36
2018-08-12T11:43:50.475Z,28.39
2018-08-12T11:44:50.246Z,28.78
2018-08-12T11:46:50.561Z,28.78
2018-08-12T11:47:50.590Z,28.39
2018-08-12T11:48:50.624Z,28.29
2018-08-12T11:49:50.392Z,27.9
2018-08-12T11:51:05.344Z,28
2018-08-12T11:51:50.711Z,27.13
2018-08-12T11:52:50.743Z,27.42
2018-08-12T11:53:50.771Z,27.42
2018-08-12T11:54:50.805Z,26.73
2018-08-12T11:55:50.835Z,27.02
2018-08-12T11:56:50.609Z,27.31
2018-08-12T11:57:50.890Z,27.31
2018-08-12T11:59:50.950Z,27.69
2018-08-12T12:00:50.979Z,27.79
2018-08-12T12:01:51.009Z,28.38
2018-08-12T12:02:51.045Z,27.68
2018-08-12T12:03:51.071Z,28.36
2018-08-12T12:04:51.101Z,28.57
2018-08-12T12:06:05.795Z,27.59
2018-08-12T12:06:51.161Z,27.9
2018-08-12T12:07:51.193Z,27.79
2018-08-12T12:08:51.222Z,28.38
2018-08-12T12:10:51.282Z,28.36
2018-08-12T12:11:51.310Z,27.68
2018-08-12T12:12:51.081Z,27.97
2018-08-12T12:14:51.141Z,27.3
2018-08-12T12:15:51.427Z,27.59
2018-08-12T12:16:51.459Z,27.79
2018-08-12T12:17:51.491Z,27.59
2018-08-12T12:18:51.515Z,28.45
2018-08-12T12:19:51.547Z,28.26
2018-08-12T12:20:51.686Z,28.45
2018-08-12T12:21:51.348Z,28.36
2018-08-12T12:22:51.383Z,27.68
2018-08-12T12:23:51.407Z,27.87
2018-08-12T12:24:51.696Z,27.66
2018-08-12T12:25:51.472Z,28.53
2018-08-12T12:26:51.495Z,28.44
2018-08-12T12:28:51.811Z,27.76
2018-08-12T12:29:51.840Z,28.05
2018-08-12T12:30:51.870Z,28.43
2018-08-12T12:31:52.001Z,28.63
2018-08-12T12:32:51.929Z,29.02
2018-08-12T12:33:51.959Z,28.15
2018-08-12T12:34:51.730Z,28.64
2018-08-12T12:35:52.016Z,28.34
2018-08-12T12:36:52.046Z,28.43
2018-08-12T12:38:06.738Z,28.44
2018-08-12T12:38:52.110Z,28.36
2018-08-12T12:39:52.137Z,27.68
2018-08-12T12:40:51.905Z,28.07
2018-08-12T12:41:52.192Z,28.25
2018-08-12T12:42:52.311Z,28.26
2018-08-12T12:43:52.262Z,28.44
2018-08-12T12:44:52.278Z,27.66
2018-08-12T12:45:52.308Z,28.34
2018-08-12T12:46:52.392Z,28.25
2018-08-12T12:48:52.401Z,28.25
2018-08-12T12:49:52.168Z,28.44
2018-08-12T12:50:52.456Z,28.34
2018-08-12T12:51:52.227Z,27.58
2018-08-12T12:52:52.513Z,27.66
2018-08-12T12:54:07.205Z,27.66
2018-08-12T12:54:52.570Z,27.47
2018-08-12T12:55:52.603Z,27.76
2018-08-12T12:56:52.630Z,26.59
2018-08-12T12:57:52.659Z,27.47
2018-08-12T12:58:52.791Z,27.28
2018-08-12T12:59:52.459Z,26.4
2018-08-12T13:00:52.746Z,26.59
2018-08-12T13:01:52.773Z,27.06
2018-08-12T13:02:52.805Z,27.36
2018-08-12T13:03:52.833Z,26.58
2018-08-12T13:05:52.892Z,26.68
2018-08-12T13:06:52.661Z,26.68
2018-08-12T13:07:52.950Z,27.16
2018-08-12T13:08:52.984Z,27.36
2018-08-12T13:10:07.670Z,25.91
2018-08-12T13:10:53.038Z,26.39
2018-08-12T13:11:53.064Z,26.47
2018-08-12T13:12:53.104Z,27.34
2018-08-12T13:13:53.122Z,28.13
2018-08-12T13:14:53.152Z,27.26
2018-08-12T13:15:53.180Z,26.97
2018-08-12T13:16:53.208Z,27.36
2018-08-12T13:17:53.236Z,27.16
2018-08-12T13:18:53.083Z,28.04
2018-08-12T13:19:53.298Z,27.26
2018-08-12T13:20:53.324Z,26.79
2018-08-12T13:21:53.354Z,26.3
2018-08-12T13:22:53.387Z,26.97
2018-08-12T13:23:53.419Z,27.83
2018-08-12T13:24:53.523Z,27.73
2018-08-12T13:26:08.131Z,28.22
2018-08-12T13:26:53.504Z,27.75
2018-08-12T13:27:53.527Z,28.14
2018-08-12T13:28:53.558Z,27.84
2018-08-12T13:29:53.583Z,27.75
2018-08-12T13:30:53.613Z,27.66
2018-08-12T13:31:53.384Z,27.45
2018-08-12T13:32:53.719Z,27.94
2018-08-12T13:33:53.700Z,27.47
2018-08-12T13:34:53.737Z,27.66
2018-08-12T13:35:53.762Z,27.47
2018-08-12T13:36:53.785Z,27.26
2018-08-12T13:37:53.830Z,27.66
2018-08-12T13:38:53.843Z,27.18
2018-08-12T13:39:53.877Z,27.56
2018-08-12T13:41:08.566Z,26.89
2018-08-12T13:41:53.929Z,27.28
2018-08-12T13:42:53.959Z,26.59
2018-08-12T13:43:53.989Z,27.65
2018-08-12T13:44:54.015Z,27.75